createdAt,value
2023-05-10T00:00:21.460Z,97.20
2023-05-10T00:02:48.268Z,97.23
2023-05-10T00:05:15.248Z,97.43
2023-05-10T00:07:42.002Z,97.08
2023-05-10T00:10:08.848Z,97.40
2023-05-10T00:12:35.448Z,97.44
2023-05-10T00:15:02.270Z,97.51
2023-05-10T00:17:28.754Z,97.53
2023-05-10T00:19:55.586Z,97.24
2023-05-10T00:22:22.274Z,97.61
2023-05-10T00:24:48.739Z,97.78
2023-05-10T00:27:15.453Z,97.62
2023-05-10T00:29:41.918Z,97.95
2023-05-10T00:32:08.827Z,97.29
2023-05-10T00:34:35.460Z,97.81
2023-05-10T00:37:02.484Z,97.65
2023-05-10T00:39:29.606Z,97.71
2023-05-10T00:41:56.061Z,97.82
2023-05-10T00:44:22.491Z,97.97
2023-05-10T00:46:50.155Z,97.76
2023-05-10T00:49:17.442Z,98.39
2023-05-10T00:51:45.643Z,97.63
2023-05-10T00:54:13.325Z,97.79
2023-05-10T00:56:40.559Z,98.12
2023-05-10T00:59:07.652Z,97.89
2023-05-10T01:01:34.600Z,98.20
2023-05-10T01:04:01.656Z,97.61
2023-05-10T01:06:28.691Z,98.29
2023-05-10T01:08:55.337Z,98.42
2023-05-10T01:11:22.257Z,97.98
2023-05-10T01:13:55.654Z,98.25
2023-05-10T01:16:22.191Z,98.35
2023-05-10T01:18:50.491Z,98.34
2023-05-10T01:21:47.705Z,98.75
2023-05-10T01:24:26.589Z,98.64
2023-05-10T01:27:20.860Z,98.15
2023-05-10T01:30:13.998Z,98.48
2023-05-10T01:32:51.533Z,98.80
2023-05-10T01:35:33.613Z,98.64
2023-05-10T01:38:09.734Z,98.69
2023-05-10T01:41:02.556Z,98.65
2023-05-10T01:43:36.515Z,98.23
2023-05-10T01:46:15.600Z,98.42
2023-05-10T01:48:53.030Z,97.91
2023-05-10T01:51:26.121Z,98.42
2023-05-10T01:54:01.483Z,98.06
2023-05-10T01:56:30.606Z,97.92
2023-05-10T01:58:59.681Z,98.47
2023-05-10T02:01:27.659Z,98.00
2023-05-10T02:03:56.590Z,98.61
2023-05-10T02:06:24.715Z,98.30
2023-05-10T02:08:53.179Z,98.25
2023-05-10T02:11:21.965Z,98.32
2023-05-10T02:13:51.429Z,98.25
2023-05-10T02:16:19.217Z,98.31
2023-05-10T02:18:46.812Z,98.39
2023-05-10T02:21:16.345Z,98.13
2023-05-10T02:23:44.213Z,98.27
2023-05-10T02:26:12.972Z,98.09
2023-05-10T02:28:41.333Z,98.34
2023-05-10T02:31:10.702Z,98.77
2023-05-10T02:33:40.845Z,98.52
2023-05-10T02:36:09.662Z,98.73
2023-05-10T02:38:37.673Z,98.21
2023-05-10T02:41:06.601Z,98.07
2023-05-10T02:43:34.781Z,98.25
2023-05-10T02:46:01.777Z,98.31
2023-05-10T02:48:28.895Z,98.00
2023-05-10T02:51:01.542Z,97.71
2023-05-10T02:53:39.321Z,97.66
2023-05-10T02:56:14.358Z,97.91
2023-05-10T02:58:41.070Z,97.85
2023-05-10T03:01:08.738Z,98.15
2023-05-10T03:03:35.395Z,98.15
2023-05-10T03:06:01.903Z,98.22
2023-05-10T03:08:30.423Z,98.20
2023-05-10T03:11:15.245Z,98.30
2023-05-10T03:14:12.842Z,98.28
2023-05-10T03:16:48.084Z,98.18
2023-05-10T03:19:27.186Z,98.17
2023-05-10T03:21:56.873Z,98.27
2023-05-10T03:24:28.354Z,98.27
2023-05-10T03:27:00.058Z,98.32
2023-05-10T03:29:27.356Z,98.19
2023-05-10T03:31:53.936Z,98.42
2023-05-10T03:34:26.855Z,98.52
2023-05-10T03:36:53.418Z,98.66
2023-05-10T03:39:20.277Z,98.55
2023-05-10T03:41:46.716Z,98.50
2023-05-10T03:44:13.232Z,98.68
2023-05-10T03:46:39.681Z,98.76
2023-05-10T03:49:06.452Z,98.77
2023-05-10T03:51:33.248Z,98.32
2023-05-10T03:53:59.743Z,98.55
2023-05-10T03:56:26.573Z,98.43
2023-05-10T03:58:53.085Z,98.30
2023-05-10T04:01:19.519Z,98.85
2023-05-10T04:03:46.408Z,99.04
2023-05-10T04:06:13.109Z,98.44
2023-05-10T04:08:39.811Z,98.92
2023-05-10T04:11:10.652Z,98.55
2023-05-10T04:13:37.907Z,99.04
2023-05-10T04:16:05.088Z,98.71
2023-05-10T04:18:32.414Z,98.60
2023-05-10T04:20:58.926Z,99.02
2023-05-10T04:23:25.505Z,98.99
2023-05-10T04:25:51.998Z,98.98
2023-05-10T04:28:18.471Z,98.53
2023-05-10T04:30:45.077Z,98.53
2023-05-10T04:33:11.527Z,98.57
2023-05-10T04:35:38.036Z,98.36
2023-05-10T04:38:04.492Z,98.41
2023-05-10T04:40:30.960Z,98.36
2023-05-10T04:42:57.462Z,98.17
2023-05-10T04:45:23.905Z,98.61
2023-05-10T04:47:50.448Z,98.91
2023-05-10T04:50:17.313Z,99.15
2023-05-10T04:52:43.946Z,98.79
2023-05-10T04:55:10.982Z,98.36
2023-05-10T04:57:37.535Z,98.57
2023-05-10T05:00:04.863Z,98.78
2023-05-10T05:02:31.756Z,98.66
2023-05-10T05:04:58.871Z,98.50
2023-05-10T05:07:25.318Z,98.76
2023-05-10T05:09:51.752Z,98.73
2023-05-10T05:12:18.179Z,98.53
2023-05-10T05:14:44.661Z,98.87
2023-05-10T05:17:11.115Z,98.63
2023-05-10T05:19:37.956Z,98.65
2023-05-10T05:22:04.675Z,98.52
2023-05-10T05:24:36.724Z,98.25
2023-05-10T05:27:03.409Z,98.64
2023-05-10T05:29:30.043Z,98.43
2023-05-10T05:31:56.684Z,98.18
2023-05-10T05:34:23.407Z,98.23
2023-05-10T05:36:49.900Z,98.38
2023-05-10T05:39:16.668Z,98.43
2023-05-10T05:41:43.553Z,98.11
2023-05-10T05:44:10.021Z,98.08
2023-05-10T05:46:36.493Z,98.14
2023-05-10T05:49:02.928Z,98.13
2023-05-10T05:51:29.520Z,97.77
2023-05-10T05:53:56.295Z,97.67
2023-05-10T05:56:25.590Z,98.06
2023-05-10T05:58:52.319Z,98.09
2023-05-10T06:01:18.837Z,97.59
2023-05-10T06:03:45.471Z,97.60
2023-05-10T06:06:12.082Z,97.64
2023-05-10T06:08:38.565Z,97.52
2023-05-10T06:11:05.295Z,97.65
2023-05-10T06:13:33.726Z,97.28
2023-05-10T06:16:00.471Z,97.34
2023-05-10T06:18:27.314Z,96.82
2023-05-10T06:20:53.779Z,96.80
2023-05-10T06:23:20.257Z,97.39
2023-05-10T06:25:46.928Z,97.11
2023-05-10T06:28:13.477Z,97.13
2023-05-10T06:30:39.935Z,97.17
2023-05-10T06:33:06.654Z,97.41
2023-05-10T06:35:34.524Z,97.42
2023-05-10T06:38:01.021Z,97.52
2023-05-10T06:40:27.660Z,97.22
2023-05-10T06:42:54.261Z,97.44
2023-05-10T06:45:21.017Z,96.89
2023-05-10T06:47:47.652Z,97.15
2023-05-10T06:50:14.346Z,96.39
2023-05-10T06:52:40.842Z,96.58
2023-05-10T06:55:08.026Z,96.67
2023-05-10T06:57:34.726Z,96.66
2023-05-10T07:00:01.292Z,95.53
2023-05-10T07:02:28.077Z,96.18
2023-05-10T07:04:55.108Z,95.57
2023-05-10T07:07:21.740Z,96.19
2023-05-10T07:09:48.433Z,94.55
2023-05-10T07:12:15.849Z,94.70
2023-05-10T07:14:43.090Z,94.47
2023-05-10T07:17:09.822Z,94.35
2023-05-10T07:19:36.905Z,95.23
2023-05-10T07:22:03.840Z,94.52
2023-05-10T07:24:30.847Z,94.79
2023-05-10T07:26:57.331Z,94.47
2023-05-10T07:29:23.806Z,93.72
2023-05-10T07:31:50.294Z,93.92
2023-05-10T07:34:16.829Z,93.75
2023-05-10T07:36:43.495Z,94.49
2023-05-10T07:39:11.423Z,94.61
2023-05-10T07:41:38.620Z,93.81
2023-05-10T07:44:05.898Z,92.65
2023-05-10T07:46:32.753Z,93.16
2023-05-10T07:48:59.628Z,93.04
2023-05-10T07:51:26.256Z,90.74
2023-05-10T07:53:52.943Z,92.30
2023-05-10T07:56:33.248Z,90.63
2023-05-10T07:59:00.406Z,90.79
2023-05-10T08:01:30.788Z,90.75
2023-05-10T08:03:57.317Z,91.17
2023-05-10T08:06:23.959Z,91.38
2023-05-10T08:08:51.509Z,90.00
2023-05-10T08:11:18.557Z,89.97
2023-05-10T08:13:49.777Z,90.42
2023-05-10T08:16:16.888Z,90.89
2023-05-10T08:18:50.045Z,89.82
2023-05-10T08:21:16.827Z,90.39
2023-05-10T08:23:44.765Z,90.31
2023-05-10T08:26:11.932Z,90.50
2023-05-10T08:28:38.545Z,90.12
2023-05-10T08:31:05.986Z,90.56
2023-05-10T08:33:32.589Z,91.55
2023-05-10T08:35:59.063Z,90.14
2023-05-10T08:38:25.868Z,92.09
2023-05-10T08:40:58.015Z,90.43
2023-05-10T08:43:32.502Z,90.25
2023-05-10T08:46:03.967Z,90.69
2023-05-10T08:48:32.008Z,90.74
2023-05-10T08:51:01.632Z,89.87
2023-05-10T08:53:30.046Z,89.03
2023-05-10T08:55:56.658Z,91.54
2023-05-10T08:58:23.381Z,90.79
2023-05-10T09:00:51.923Z,90.50
2023-05-10T09:03:18.875Z,89.81
2023-05-10T09:05:46.121Z,88.63
2023-05-10T09:08:14.279Z,87.20
2023-05-10T09:10:43.257Z,87.19
2023-05-10T09:13:11.957Z,84.72
2023-05-10T09:15:39.443Z,85.19
2023-05-10T09:18:05.968Z,85.22
2023-05-10T09:20:32.573Z,85.23
2023-05-10T09:22:59.273Z,86.06
2023-05-10T09:25:25.746Z,86.74
2023-05-10T09:27:53.619Z,84.73
2023-05-10T09:30:28.702Z,84.56
2023-05-10T09:32:55.740Z,83.24
2023-05-10T09:35:28.022Z,84.98
2023-05-10T09:37:58.220Z,78.50
2023-05-10T09:40:26.342Z,79.52
2023-05-10T09:43:03.402Z,78.56
2023-05-10T09:45:31.906Z,77.56
2023-05-10T09:48:00.268Z,78.05
2023-05-10T09:50:27.707Z,76.89
2023-05-10T09:53:00.975Z,76.21
2023-05-10T09:55:42.526Z,80.50
2023-05-10T09:58:11.840Z,80.51
2023-05-10T10:00:43.167Z,79.96
2023-05-10T10:03:18.383Z,78.28
2023-05-10T10:05:45.673Z,82.16
2023-05-10T10:08:13.772Z,83.82
2023-05-10T10:10:46.294Z,82.96
2023-05-10T10:13:13.551Z,82.02
2023-05-10T10:15:40.391Z,82.04
2023-05-10T10:18:09.059Z,82.30
2023-05-10T10:20:38.522Z,81.77
2023-05-10T10:23:04.984Z,78.87
2023-05-10T10:25:32.779Z,79.25
2023-05-10T10:28:22.981Z,80.05
2023-05-10T10:30:52.340Z,82.85
2023-05-10T10:33:37.161Z,81.19
2023-05-10T10:36:05.088Z,82.11
2023-05-10T10:38:47.875Z,80.28
2023-05-10T10:41:33.063Z,82.50
2023-05-10T10:44:47.856Z,79.38
2023-05-10T10:47:19.795Z,81.03
2023-05-10T10:50:02.892Z,80.67
2023-05-10T10:52:34.510Z,81.19
2023-05-10T10:55:08.242Z,80.72
2023-05-10T10:58:03.787Z,78.38
2023-05-10T11:00:36.510Z,78.36
2023-05-10T11:03:15.548Z,80.91
2023-05-10T11:05:43.938Z,84.44
2023-05-10T11:08:12.998Z,77.93
2023-05-10T11:10:40.659Z,78.17
2023-05-10T11:13:09.074Z,77.50
2023-05-10T11:15:35.612Z,79.46
2023-05-10T11:18:18.048Z,79.41
2023-05-10T11:20:44.606Z,78.50
2023-05-10T11:23:16.854Z,81.46
2023-05-10T11:25:45.222Z,79.89
2023-05-10T11:28:15.226Z,83.17
2023-05-10T11:30:44.498Z,81.18
2023-05-10T11:33:17.062Z,79.92
2023-05-10T11:35:44.085Z,80.04
2023-05-10T11:38:12.433Z,80.66
2023-05-10T11:40:40.064Z,77.16
2023-05-10T11:43:06.867Z,78.35
2023-05-10T11:45:34.431Z,75.65
2023-05-10T11:48:01.848Z,75.18
2023-05-10T11:50:28.877Z,73.57
2023-05-10T11:52:59.793Z,71.20
2023-05-10T11:55:26.661Z,73.75
2023-05-10T11:57:54.521Z,74.50
2023-05-10T12:00:21.318Z,73.38
2023-05-10T12:02:48.581Z,72.00
2023-05-10T12:05:15.629Z,72.33
2023-05-10T12:07:42.162Z,74.27
2023-05-10T12:10:11.051Z,76.79
2023-05-10T12:12:45.116Z,76.56
2023-05-10T12:15:17.749Z,78.76
2023-05-10T12:17:45.639Z,76.97
2023-05-10T12:20:16.263Z,73.49
2023-05-10T12:22:51.082Z,72.87
2023-05-10T12:25:19.059Z,73.16
2023-05-10T12:30:38.742Z,75.78
2023-05-10T12:33:14.145Z,73.28
2023-05-10T12:35:54.866Z,71.95
2023-05-10T12:38:40.059Z,73.00
2023-05-10T12:41:14.693Z,74.21
2023-05-10T12:43:41.506Z,72.71
2023-05-10T12:46:09.843Z,69.25
2023-05-10T12:48:37.675Z,68.77
2023-05-10T12:51:05.021Z,72.12
2023-05-10T12:53:32.149Z,70.31
2023-05-10T12:55:58.653Z,69.84
2023-05-10T12:58:34.881Z,72.30
2023-05-10T13:01:02.611Z,68.77
2023-05-10T13:03:29.117Z,70.24
2023-05-10T13:05:55.593Z,72.03
2023-05-10T13:08:22.119Z,71.28
2023-05-10T13:10:48.758Z,70.72
2023-05-10T13:13:16.111Z,70.37
2023-05-10T13:15:42.617Z,71.77
2023-05-10T13:18:09.288Z,70.91
2023-05-10T13:20:36.038Z,73.04
2023-05-10T13:23:03.676Z,74.96
2023-05-10T13:25:30.956Z,77.97
2023-05-10T13:27:57.484Z,79.40
2023-05-10T13:30:25.013Z,81.27
2023-05-10T13:32:51.768Z,81.48
2023-05-10T13:35:18.494Z,80.56
2023-05-10T13:37:44.988Z,82.94
2023-05-10T13:40:11.753Z,83.83
2023-05-10T13:42:38.492Z,86.68
2023-05-10T13:45:05.527Z,87.01
2023-05-10T13:47:32.022Z,87.97
2023-05-10T13:49:59.320Z,89.85
2023-05-10T13:52:26.173Z,89.78
2023-05-10T13:54:55.776Z,91.10
2023-05-10T13:57:22.915Z,90.75
2023-05-10T13:59:49.512Z,91.65
2023-05-10T14:02:16.100Z,92.08
2023-05-10T14:04:42.550Z,92.21
2023-05-10T14:07:09.208Z,92.33
2023-05-10T14:09:35.667Z,91.89
2023-05-10T14:12:03.159Z,91.78
2023-05-10T14:14:30.398Z,92.29
2023-05-10T14:16:56.946Z,91.89
2023-05-10T14:19:23.493Z,92.86
2023-05-10T14:21:49.988Z,92.11
2023-05-10T14:24:16.437Z,92.37
2023-05-10T14:26:42.902Z,91.38
2023-05-10T14:29:11.497Z,91.83
2023-05-10T14:31:39.031Z,92.24
2023-05-10T14:34:06.734Z,91.94
2023-05-10T14:36:33.354Z,92.68
2023-05-10T14:38:59.899Z,91.96
2023-05-10T14:41:26.371Z,92.71
2023-05-10T14:43:53.663Z,92.04
2023-05-10T14:46:20.881Z,92.56
2023-05-10T14:48:47.576Z,93.04
2023-05-10T14:51:14.252Z,91.66
2023-05-10T14:53:40.729Z,92.85
2023-05-10T14:56:08.068Z,92.96
2023-05-10T14:58:34.619Z,93.58
2023-05-10T15:01:01.233Z,92.58
2023-05-10T15:03:28.457Z,92.82
2023-05-10T15:05:57.014Z,93.31
2023-05-10T15:08:25.473Z,92.94
2023-05-10T15:10:52.505Z,92.39
2023-05-10T15:13:19.016Z,93.05
2023-05-10T15:15:45.539Z,92.42
2023-05-10T15:18:12.335Z,93.07
2023-05-10T15:20:38.965Z,92.74
2023-05-10T15:23:05.493Z,90.95
2023-05-10T15:25:32.189Z,92.11
2023-05-10T15:27:58.759Z,93.01
2023-05-10T15:30:25.326Z,92.52
2023-05-10T15:32:51.971Z,92.00
2023-05-10T15:35:18.986Z,90.40
2023-05-10T15:37:48.446Z,91.00
2023-05-10T15:40:15.017Z,91.35
2023-05-10T15:42:41.600Z,89.12
2023-05-10T15:45:11.769Z,90.46
2023-05-10T15:47:40.639Z,87.88
2023-05-10T15:50:08.060Z,89.94
2023-05-10T15:52:34.788Z,91.03
2023-05-10T15:55:01.227Z,90.93
2023-05-10T15:57:27.896Z,88.89
2023-05-10T15:59:54.531Z,88.50
2023-05-10T16:02:22.505Z,89.21
2023-05-10T16:04:49.268Z,88.99
2023-05-10T16:07:16.009Z,88.92
2023-05-10T16:09:42.637Z,89.34
2023-05-10T16:12:09.324Z,89.71
2023-05-10T16:14:35.834Z,89.87
2023-05-10T16:17:03.183Z,90.14
2023-05-10T16:19:31.936Z,88.60
2023-05-10T16:21:58.531Z,88.69
2023-05-10T16:24:25.984Z,87.53
2023-05-10T16:26:52.807Z,88.61
2023-05-10T16:29:19.514Z,87.58
2023-05-10T16:31:46.350Z,88.19
2023-05-10T16:34:12.837Z,88.99
2023-05-10T16:36:39.365Z,90.26
2023-05-10T16:39:05.865Z,90.53
2023-05-10T16:41:33.982Z,89.80
2023-05-10T16:44:00.676Z,90.30
2023-05-10T16:46:27.301Z,89.92
2023-05-10T16:48:53.922Z,88.25
2023-05-10T16:51:20.489Z,90.53
2023-05-10T16:53:47.114Z,87.60
2023-05-10T16:56:13.562Z,88.63
2023-05-10T16:58:40.040Z,86.37
2023-05-10T17:01:07.193Z,87.35
2023-05-10T17:03:34.189Z,88.18
2023-05-10T17:06:00.786Z,87.06
2023-05-10T17:08:27.274Z,83.76
2023-05-10T17:10:53.852Z,87.34
2023-05-10T17:13:20.284Z,86.17
2023-05-10T17:15:47.469Z,84.45
2023-05-10T17:18:14.026Z,85.34
2023-05-10T17:20:43.170Z,86.12
2023-05-10T17:23:09.790Z,87.11
2023-05-10T17:25:36.813Z,87.75
2023-05-10T17:28:03.924Z,88.07
2023-05-10T17:30:32.623Z,88.98
2023-05-10T17:33:00.151Z,88.71
2023-05-10T17:35:26.884Z,87.51
2023-05-10T17:37:53.787Z,89.03
2023-05-10T17:40:20.346Z,87.71
2023-05-10T17:42:47.024Z,87.93
2023-05-10T17:45:13.498Z,89.11
2023-05-10T17:47:40.049Z,88.18
2023-05-10T17:50:07.038Z,87.54
2023-05-10T17:52:33.755Z,86.27
2023-05-10T17:55:00.289Z,88.61
2023-05-10T17:57:26.855Z,87.84
2023-05-10T17:59:53.467Z,86.35
2023-05-10T18:02:20.125Z,84.87
2023-05-10T18:04:48.612Z,86.39
2023-05-10T18:07:15.589Z,89.19
2023-05-10T18:09:42.137Z,88.54
2023-05-10T18:12:08.680Z,86.89
2023-05-10T18:14:41.218Z,87.65
2023-05-10T18:17:09.689Z,87.99
2023-05-10T18:19:36.505Z,88.56
2023-05-10T18:22:03.235Z,87.39
2023-05-10T18:24:38.930Z,89.34
2023-05-10T18:27:08.666Z,88.42
2023-05-10T18:29:36.222Z,87.99
2023-05-10T18:32:02.988Z,89.40
2023-05-10T18:34:29.558Z,89.80
2023-05-10T18:36:56.414Z,89.58
2023-05-10T18:39:23.593Z,87.51
2023-05-10T18:41:50.260Z,86.96
2023-05-10T18:44:16.901Z,88.76
2023-05-10T18:46:43.587Z,88.83
2023-05-10T18:49:10.135Z,89.23
2023-05-10T18:51:36.941Z,89.14
2023-05-10T18:54:03.577Z,88.36
2023-05-10T18:56:30.076Z,89.57
2023-05-10T18:58:56.626Z,90.54
2023-05-10T19:01:23.238Z,89.34
2023-05-10T19:03:49.784Z,90.18
2023-05-10T19:06:16.456Z,89.71
2023-05-10T19:08:42.954Z,90.22
2023-05-10T19:11:09.481Z,90.73
2023-05-10T19:13:36.080Z,90.33
2023-05-10T19:16:05.782Z,90.49
2023-05-10T19:18:32.738Z,90.24
2023-05-10T19:21:02.349Z,90.18
2023-05-10T19:23:30.222Z,90.74
2023-05-10T19:25:57.014Z,91.21
2023-05-10T19:28:23.495Z,91.10
2023-05-10T19:30:50.330Z,91.87
2023-05-10T19:33:18.410Z,92.26
2023-05-10T19:35:48.635Z,92.35
2023-05-10T19:38:15.165Z,92.90
2023-05-10T19:40:41.839Z,92.32
2023-05-10T19:43:08.608Z,92.14
2023-05-10T19:45:37.134Z,92.54
2023-05-10T19:48:03.843Z,92.40
2023-05-10T19:50:30.505Z,93.42
2023-05-10T19:52:58.439Z,93.54
2023-05-10T19:55:30.889Z,93.22
2023-05-10T19:57:57.929Z,93.13
2023-05-10T20:00:24.941Z,93.47
2023-05-10T20:02:51.716Z,93.39
2023-05-10T20:05:18.456Z,93.88
2023-05-10T20:07:45.457Z,94.19
2023-05-10T20:10:12.174Z,94.39
2023-05-10T20:12:38.688Z,94.59
2023-05-10T20:15:07.497Z,94.59
2023-05-10T20:17:35.842Z,94.73
2023-05-10T20:20:02.330Z,94.83
2023-05-10T20:22:28.829Z,94.58
2023-05-10T20:24:56.284Z,94.89
2023-05-10T20:27:22.888Z,94.75
2023-05-10T20:29:49.363Z,95.13
2023-05-10T20:32:16.054Z,94.67
2023-05-10T20:34:42.515Z,95.11
2023-05-10T20:37:09.140Z,95.17
2023-05-10T20:39:35.821Z,95.29
2023-05-10T20:42:02.390Z,95.50
2023-05-10T20:44:28.888Z,95.49
2023-05-10T20:46:55.437Z,95.48
2023-05-10T20:49:21.880Z,95.53
2023-05-10T20:51:48.345Z,95.52
2023-05-10T20:54:14.802Z,95.32
2023-05-10T20:56:41.314Z,94.95
2023-05-10T20:59:07.817Z,95.18
2023-05-10T21:01:34.317Z,95.42
2023-05-10T21:04:00.876Z,95.34
2023-05-10T21:06:27.316Z,95.41
2023-05-10T21:08:53.838Z,95.42
2023-05-10T21:11:20.786Z,95.37
2023-05-10T21:13:47.298Z,95.23
2023-05-10T21:16:13.834Z,95.18
2023-05-10T21:18:40.350Z,95.55
2023-05-10T21:21:06.896Z,95.08
2023-05-10T21:23:34.668Z,95.34
2023-05-10T21:26:03.723Z,95.97
2023-05-10T21:28:30.167Z,95.43
2023-05-10T21:30:56.954Z,95.71
2023-05-10T21:33:23.812Z,95.47
2023-05-10T21:35:50.563Z,95.69
2023-05-10T21:38:17.198Z,95.72
2023-05-10T21:40:43.740Z,95.70
2023-05-10T21:43:11.310Z,95.39
2023-05-10T21:45:38.102Z,95.26
2023-05-10T21:48:04.946Z,95.23
2023-05-10T21:50:31.420Z,95.04
2023-05-10T21:52:58.112Z,95.34
2023-05-10T21:55:24.722Z,95.63
2023-05-10T21:57:51.248Z,96.07
2023-05-10T22:00:19.238Z,95.83
2023-05-10T22:02:46.795Z,95.65
2023-05-10T22:05:13.589Z,95.86
2023-05-10T22:07:40.082Z,95.40
2023-05-10T22:10:08.509Z,95.65
2023-05-10T22:12:35.217Z,95.72
2023-05-10T22:15:10.226Z,95.97
2023-05-10T22:17:40.745Z,96.42
2023-05-10T22:20:08.886Z,96.26
2023-05-10T22:22:36.517Z,95.80
2023-05-10T22:25:03.054Z,95.69
2023-05-10T22:27:29.519Z,96.04
2023-05-10T22:29:56.537Z,95.89
2023-05-10T22:32:23.066Z,96.41
2023-05-10T22:34:49.587Z,96.49
2023-05-10T22:37:17.953Z,96.42
2023-05-10T22:39:48.625Z,96.81
2023-05-10T22:42:15.729Z,96.31
2023-05-10T22:44:42.718Z,96.33
2023-05-10T22:47:09.399Z,96.31
2023-05-10T22:49:36.154Z,96.24
2023-05-10T22:52:02.601Z,96.41
2023-05-10T22:54:29.164Z,97.04
2023-05-10T22:56:56.508Z,96.41
2023-05-10T22:59:23.523Z,96.36
2023-05-10T23:01:50.289Z,96.78
2023-05-10T23:04:16.951Z,96.58
2023-05-10T23:06:43.540Z,96.65
2023-05-10T23:09:10.083Z,96.49
2023-05-10T23:11:36.573Z,96.32
2023-05-10T23:14:03.282Z,96.67
2023-05-10T23:16:30.512Z,96.54
2023-05-10T23:18:57.312Z,96.16
2023-05-10T23:21:26.595Z,96.37
2023-05-10T23:23:53.080Z,96.45
2023-05-10T23:26:19.563Z,96.26
2023-05-10T23:28:46.052Z,96.22
2023-05-10T23:31:12.663Z,96.35
2023-05-10T23:33:39.146Z,96.36
2023-05-10T23:36:05.771Z,96.42
2023-05-10T23:38:32.239Z,96.14
2023-05-10T23:40:58.772Z,96.70
2023-05-10T23:43:25.453Z,96.23
2023-05-10T23:45:54.145Z,96.72
2023-05-10T23:48:21.074Z,96.63
2023-05-10T23:50:47.866Z,96.68
2023-05-10T23:53:14.458Z,96.61
2023-05-10T23:55:40.940Z,96.84
2023-05-10T23:58:07.421Z,96.50
